x

Freeport, Tx - 60 Nm South Of Freeport, Tx (42019) Wave Buoy

10:50am - Sat 28th Feb 2015 All times are CST. -6 hours from GMT.

  • Sig Wave height 10.5ft
  • Swell Direction
  • Peak Period 9s
  • Average Period 6s
  • Wind
    27mph, 31mph gusts
  • Sea Temp 67°f
  • Air Temp 65°f
  • Sea Pressure 1022.9mb
  • Freeport, Tx - 60 Nm South Of Freeport, Tx
  • Freeport, Tx - 60 Nm South Of Freeport, Tx

More Historic Weather Station data

Upgrade to MSW Pro to gain access to the past 30 days of data for over 8000 Wavebouys and Weather Stations around the globe.

Join Pro

Comparision Forecast

View Surf forecast
   
Sat 02/28 10:50am 10.5ft 9s 6s 27 31 mph 1022.9mb 67f 65f
9:50am 10.5ft 9s 6s 27 31 mph 1022.7mb 67f 65f
8:50am 10ft 9s 6s 27 34 mph 1022.5mb 67f 64f
7:50am 10ft 8s 6s 27 34 mph 1022.6mb 67f 63f
6:50am 9.5ft 9s 6s 29 34 mph 1022.1mb 67f 62f
5:50am 10ft 8s 6s 29 36 mph 1021.6mb 66f 61f
4:50am 9.5ft 8s 6s 27 34 mph 1021.6mb 66f 61f
3:50am 9.5ft 8s 6s 27 31 mph 1021.8mb 66f 60f
2:50am 8.5ft 8s 6s 29 34 mph 1022.1mb 66f 60f
1:50am 9ft 8s 6s 27 34 mph 1022.8mb 66f 60f
12:50am 8ft 8s 6s 27 31 mph 1023.4mb 66f 59f
Fri 02/27 11:50pm 8ft 8s 6s 27 34 mph 1023.4mb 66f 59f
10:50pm 8.5ft 8s 6s 27 36 mph 1024.1mb 66f 58f
9:50pm 7.5ft 6s 5s 29 36 mph 1023.5mb 66f 58f
8:50pm 7ft 7s 5s 29 34 mph 1023.5mb 66f 57f
7:50pm 7.5ft 7s 5s 27 31 mph 1023.3mb 66f 57f
6:50pm 7ft 7s 5s 25 29 mph 1023mb 66f 57f
5:50pm 6ft 7s 5s 25 34 mph 1022.9mb 66f 57f
4:50pm 6ft 7s 5s 22 27 mph 1022.9mb 66f 58f
3:50pm 5.5ft 7s 5s 22 27 mph 1022.8mb 67f 58f
2:50pm 6ft 7s 5s 20 25 mph 1023.1mb 67f 58f
1:50pm 5.5ft 7s 5s 20 25 mph 1023.6mb 67f 58f
12:50pm 6ft 6s 5s 20 25 mph 1024.2mb 67f 57f
11:50am 6ft 7s 5s 20 25 mph 1025mb 67f 57f
10:50am 6ft 7s 5s 20 27 mph 1025.6mb 67f 57f
9:50am 6.5ft 7s 5s 20 22 mph 1025.9mb 67f 57f
8:50am 6ft 7s 5s 20 27 mph 1025.5mb 67f 56f
7:50am 7ft 7s 5s 22 27 mph 1024.7mb 67f 56f
6:50am 7ft 7s 5s 22 27 mph 1024.3mb 67f 55f
5:50am 7ft 7s 5s 22 29 mph 1024.5mb 67f 54f
4:50am 7ft 7s 5s 22 27 mph 1024.1mb 67f 55f
3:50am 7ft 6s 5s 25 27 mph 1023.5mb 67f 55f
2:50am 8ft 7s 6s 22 27 mph 1023.9mb 67f 55f
1:50am 7ft 7s 5s 22 27 mph 1023.9mb 67f 54f
12:50am 7ft 7s 5s 25 29 mph 1023.7mb 67f 54f
Thu 02/26 11:50pm 7.5ft 7s 5s 25 31 mph 1023.5mb 67f 55f
10:50pm 6ft 7s 5s 25 31 mph 1023.1mb 67f 56f
9:50pm 6ft 6s 5s 27 31 mph 1022.6mb 67f 55f
8:50pm 6ft 6s 5s 27 34 mph 1022.3mb 67f 55f
7:50pm 5.5ft 6s 5s 25 34 mph 1021.9mb 67f 54f
6:50pm 5.5ft 6s 5s 25 29 mph 1021.1mb 67f 53f
5:50pm 5ft 6s 5s 25 34 mph 1020.2mb 67f 52f
4:50pm 5ft 5s 5s 25 29 mph 1019.7mb 67f 52f
3:50pm 5ft 6s 5s 25 29 mph 1019.5mb 67f 51f
2:50pm 4.5ft 6s 4s 22 27 mph 1019.4mb 67f 51f
1:50pm 4.5ft 5s 4s 22 27 mph 1019.7mb 67f 51f
12:50pm 4ft 5s 4s 22 29 mph 1019.7mb 67f 51f
11:50am 3.5ft 5s 4s 22 27 mph 1019.6mb 67f 52f
10:50am 3.5ft 5s 4s 22 27 mph 1018.8mb 67f 53f
9:50am 2.5ft 4s 4s 22 27 mph 1018.6mb 67f 54f
8:50am 2.5ft 5s 4s 18 20 mph 1018.4mb 67f 55f
7:50am 2.5ft 6s 4s 16 18 mph 1017.4mb 67f 55f
6:50am 2.5ft 6s 4s 13 16 mph 1016.3mb 67f 54f
5:50am 2.5ft 6s 4s 9 13 mph 1015.8mb 67f 54f
4:50am 2.5ft 5s 4s 11 13 mph 1014.4mb 67f 55f
3:50am 2.5ft 5s 4s 13 20 mph 1013.4mb 67f 55f
2:50am 3ft 6s 4s 13 18 mph 1013.3mb 67f 55f
1:50am 3ft 6s 4s 16 20 mph 1012.9mb 67f 55f
12:50am 3.5ft 5s 4s 16 20 mph 1013.1mb 67f 55f
Wed 02/25 11:50pm 3ft 5s 4s 16 22 mph 1012.9mb 67f 55f
10:50pm 3.5ft 5s 4s 16 20 mph 1013.2mb 67f 55f
9:50pm 4ft 5s 4s 13 16 mph 1013.1mb 67f 55f
8:50pm 3.5ft 5s 4s 16 22 mph 1012.3mb 67f 55f
7:50pm 3.5ft 5s 4s 18 20 mph 1011.4mb 67f 54f
6:50pm 4ft 5s 4s 16 20 mph 1010.8mb 67f 54f
5:50pm 4ft 5s 4s 18 22 mph 1010.6mb 67f 55f
4:50pm  -   -   -  16 22 mph 1010.3mb 67f 53f
3:50pm 5ft 5s 5s 20 25 mph 1010.3mb 67f 51f
2:50pm 5ft 5s 5s 20 27 mph 1010.3mb 67f 50f
1:50pm 5ft 5s 5s 18 25 mph 1010.8mb 67f 49f
12:50pm 5ft 5s 4s 22 29 mph 1011.6mb 67f 49f
11:50am 4.5ft 5s 4s 27 31 mph 1012.6mb 67f 49f
10:50am 5ft 6s 5s 20 27 mph 1012.9mb 67f 52f
9:50am 5.5ft 6s 5s 20 27 mph 1013.5mb 67f 51f
8:50am 5ft 6s 5s 22 27 mph 1013.3mb 67f 50f
7:50am 5.5ft 5s 5s 25 29 mph 1012.5mb 67f 51f
6:50am 4.5ft 5s 4s 27 31 mph 1011.8mb 67f 52f
5:50am 3.5ft 4s 4s 27 34 mph 1010.8mb 67f 52f
4:50am 2.5ft 6s 4s 18 22 mph 1010.4mb 67f 56f
3:50am 2.5ft 6s 4s 13 18 mph 1010.3mb 67f 56f
2:50am 2.5ft 6s 4s 13 16 mph 1011mb 67f 55f
1:50am 2.5ft 5s 4s 13 18 mph 1011.9mb 67f 55f
12:50am 2.5ft 5s 4s 16 18 mph 1012.4mb 67f 54f
Tue 02/24 11:50pm 3ft 6s 4s 13 18 mph 1013.8mb 67f 53f
10:50pm 3ft 6s 5s 11 16 mph 1015.1mb 67f 52f
9:50pm 3ft 6s 5s 11 13 mph 1016.2mb 67f 51f
8:50pm 3ft 6s 5s 9 11 mph 1017.3mb 67f 51f
7:50pm 3.5ft 6s 5s 9 13 mph 1017mb 67f 50f
6:50pm 3.5ft 7s 5s 11 16 mph 1017.3mb 67f 49f
5:50pm 3.5ft 7s 5s 11 16 mph 1018.7mb 67f 48f